sensor_id;sensor_type;location;lat;lon;timestamp;temperature;humidity
13721;DHT22;6932;51.438;5.470;2023-06-14T00:02:09;26.90;48.10
13721;DHT22;6932;51.438;5.470;2023-06-14T00:04:35;26.90;48.00
13721;DHT22;6932;51.438;5.470;2023-06-14T00:07:03;26.80;48.10
13721;DHT22;6932;51.438;5.470;2023-06-14T00:09:29;26.80;48.20
13721;DHT22;6932;51.438;5.470;2023-06-14T00:11:54;26.70;48.20
13721;DHT22;6932;51.438;5.470;2023-06-14T00:14:20;26.60;48.20
13721;DHT22;6932;51.438;5.470;2023-06-14T00:16:46;26.60;48.30
13721;DHT22;6932;51.438;5.470;2023-06-14T00:19:13;26.50;48.40
13721;DHT22;6932;51.438;5.470;2023-06-14T00:21:39;26.50;48.30
13721;DHT22;6932;51.438;5.470;2023-06-14T00:24:05;26.40;48.60
13721;DHT22;6932;51.438;5.470;2023-06-14T00:26:30;26.40;48.60
13721;DHT22;6932;51.438;5.470;2023-06-14T00:28:56;26.40;48.50
13721;DHT22;6932;51.438;5.470;2023-06-14T00:31:22;26.40;48.30
13721;DHT22;6932;51.438;5.470;2023-06-14T00:33:48;26.30;48.30
13721;DHT22;6932;51.438;5.470;2023-06-14T00:36:14;26.30;48.40
13721;DHT22;6932;51.438;5.470;2023-06-14T00:38:40;26.30;48.40
13721;DHT22;6932;51.438;5.470;2023-06-14T00:41:06;26.30;48.40
13721;DHT22;6932;51.438;5.470;2023-06-14T00:43:31;26.20;48.50
13721;DHT22;6932;51.438;5.470;2023-06-14T00:45:58;26.20;48.50
13721;DHT22;6932;51.438;5.470;2023-06-14T00:48:24;26.10;48.50
13721;DHT22;6932;51.438;5.470;2023-06-14T00:50:50;26.10;48.50
13721;DHT22;6932;51.438;5.470;2023-06-14T00:53:18;26.10;48.60
13721;DHT22;6932;51.438;5.470;2023-06-14T00:55:46;26.00;48.60
13721;DHT22;6932;51.438;5.470;2023-06-14T00:58:12;26.00;48.60
13721;DHT22;6932;51.438;5.470;2023-06-14T01:00:39;26.00;48.60
13721;DHT22;6932;51.438;5.470;2023-06-14T01:03:05;26.00;48.70
13721;DHT22;6932;51.438;5.470;2023-06-14T01:05:31;25.90;48.70
13721;DHT22;6932;51.438;5.470;2023-06-14T01:08:25;25.90;48.70
13721;DHT22;6932;51.438;5.470;2023-06-14T01:11:07;25.80;48.60
13721;DHT22;6932;51.438;5.470;2023-06-14T01:13:42;25.80;48.70
13721;DHT22;6932;51.438;5.470;2023-06-14T01:16:12;25.80;48.70
13721;DHT22;6932;51.438;5.470;2023-06-14T01:18:38;25.70;48.70
13721;DHT22;6932;51.438;5.470;2023-06-14T01:21:04;25.70;48.80
13721;DHT22;6932;51.438;5.470;2023-06-14T01:23:31;25.70;48.70
13721;DHT22;6932;51.438;5.470;2023-06-14T01:26:01;25.60;48.80
13721;DHT22;6932;51.438;5.470;2023-06-14T01:28:28;25.60;48.80
13721;DHT22;6932;51.438;5.470;2023-06-14T01:31:01;25.50;48.70
13721;DHT22;6932;51.438;5.470;2023-06-14T01:33:32;25.50;48.80
13721;DHT22;6932;51.438;5.470;2023-06-14T01:35:59;25.50;48.70
13721;DHT22;6932;51.438;5.470;2023-06-14T01:38:27;25.40;48.70
13721;DHT22;6932;51.438;5.470;2023-06-14T01:40:55;25.40;48.80
13721;DHT22;6932;51.438;5.470;2023-06-14T01:43:23;25.40;48.90
13721;DHT22;6932;51.438;5.470;2023-06-14T01:45:51;25.40;48.80
13721;DHT22;6932;51.438;5.470;2023-06-14T01:48:20;25.30;48.90
13721;DHT22;6932;51.438;5.470;2023-06-14T01:50:48;25.30;48.90
13721;DHT22;6932;51.438;5.470;2023-06-14T01:53:15;25.20;48.90
13721;DHT22;6932;51.438;5.470;2023-06-14T01:55:41;25.20;48.90
13721;DHT22;6932;51.438;5.470;2023-06-14T01:58:09;25.20;48.90
13721;DHT22;6932;51.438;5.470;2023-06-14T02:00:36;25.10;49.50
13721;DHT22;6932;51.438;5.470;2023-06-14T02:03:02;25.10;48.90
13721;DHT22;6932;51.438;5.470;2023-06-14T02:05:30;25.10;49.00
13721;DHT22;6932;51.438;5.470;2023-06-14T02:07:56;25.10;49.00
13721;DHT22;6932;51.438;5.470;2023-06-14T02:10:23;25.00;49.00
13721;DHT22;6932;51.438;5.470;2023-06-14T02:12:48;25.00;49.00
13721;DHT22;6932;51.438;5.470;2023-06-14T02:15:15;24.90;49.10
13721;DHT22;6932;51.438;5.470;2023-06-14T02:17:45;24.90;49.10
13721;DHT22;6932;51.438;5.470;2023-06-14T02:20:14;24.90;49.30
13721;DHT22;6932;51.438;5.470;2023-06-14T02:22:41;24.90;49.30
13721;DHT22;6932;51.438;5.470;2023-06-14T02:25:07;24.80;49.20
13721;DHT22;6932;51.438;5.470;2023-06-14T02:27:34;24.80;49.30
13721;DHT22;6932;51.438;5.470;2023-06-14T02:30:00;24.80;49.50
13721;DHT22;6932;51.438;5.470;2023-06-14T02:32:26;24.80;49.50
13721;DHT22;6932;51.438;5.470;2023-06-14T02:34:53;24.70;49.50
13721;DHT22;6932;51.438;5.470;2023-06-14T02:37:20;24.70;49.50
13721;DHT22;6932;51.438;5.470;2023-06-14T02:39:46;24.70;49.60
13721;DHT22;6932;51.438;5.470;2023-06-14T02:42:11;24.60;49.60
13721;DHT22;6932;51.438;5.470;2023-06-14T02:44:37;24.60;49.60
13721;DHT22;6932;51.438;5.470;2023-06-14T02:47:04;24.60;49.70
13721;DHT22;6932;51.438;5.470;2023-06-14T02:49:30;24.60;49.70
13721;DHT22;6932;51.438;5.470;2023-06-14T02:51:56;24.60;49.90
13721;DHT22;6932;51.438;5.470;2023-06-14T02:54:22;24.50;49.80
13721;DHT22;6932;51.438;5.470;2023-06-14T02:56:48;24.50;49.90
13721;DHT22;6932;51.438;5.470;2023-06-14T02:59:13;24.50;49.90
13721;DHT22;6932;51.438;5.470;2023-06-14T03:01:40;24.40;49.90
13721;DHT22;6932;51.438;5.470;2023-06-14T03:04:10;24.40;50.00
13721;DHT22;6932;51.438;5.470;2023-06-14T03:06:35;24.40;50.00
13721;DHT22;6932;51.438;5.470;2023-06-14T03:09:02;24.30;50.00
13721;DHT22;6932;51.438;5.470;2023-06-14T03:11:32;24.30;50.10
13721;DHT22;6932;51.438;5.470;2023-06-14T03:13:58;24.30;50.10
13721;DHT22;6932;51.438;5.470;2023-06-14T03:16:25;24.30;50.20
13721;DHT22;6932;51.438;5.470;2023-06-14T03:18:54;24.20;50.10
13721;DHT22;6932;51.438;5.470;2023-06-14T03:21:20;24.20;50.20
13721;DHT22;6932;51.438;5.470;2023-06-14T03:23:46;24.20;50.20
13721;DHT22;6932;51.438;5.470;2023-06-14T03:26:13;24.20;50.30
13721;DHT22;6932;51.438;5.470;2023-06-14T03:28:46;24.20;50.40
13721;DHT22;6932;51.438;5.470;2023-06-14T03:31:15;24.10;50.30
13721;DHT22;6932;51.438;5.470;2023-06-14T03:33:41;24.10;50.40
13721;DHT22;6932;51.438;5.470;2023-06-14T03:36:07;24.10;50.50
13721;DHT22;6932;51.438;5.470;2023-06-14T03:38:33;24.10;50.60
13721;DHT22;6932;51.438;5.470;2023-06-14T03:41:00;24.10;50.60
13721;DHT22;6932;51.438;5.470;2023-06-14T03:43:25;24.10;50.70
13721;DHT22;6932;51.438;5.470;2023-06-14T03:45:51;24.10;50.80
13721;DHT22;6932;51.438;5.470;2023-06-14T03:48:17;24.00;50.70
13721;DHT22;6932;51.438;5.470;2023-06-14T03:50:43;24.00;50.80
13721;DHT22;6932;51.438;5.470;2023-06-14T03:53:10;24.00;50.80
13721;DHT22;6932;51.438;5.470;2023-06-14T03:55:36;24.00;50.90
13721;DHT22;6932;51.438;5.470;2023-06-14T03:58:03;24.00;50.90
13721;DHT22;6932;51.438;5.470;2023-06-14T04:00:29;24.00;51.00
13721;DHT22;6932;51.438;5.470;2023-06-14T04:02:55;24.00;51.00
13721;DHT22;6932;51.438;5.470;2023-06-14T04:05:21;23.90;51.00
13721;DHT22;6932;51.438;5.470;2023-06-14T04:07:47;24.00;51.10
13721;DHT22;6932;51.438;5.470;2023-06-14T04:10:15;24.00;51.00
13721;DHT22;6932;51.438;5.470;2023-06-14T04:12:41;24.00;51.10
13721;DHT22;6932;51.438;5.470;2023-06-14T04:15:08;24.00;51.10
13721;DHT22;6932;51.438;5.470;2023-06-14T04:17:36;24.00;51.10
13721;DHT22;6932;51.438;5.470;2023-06-14T04:20:03;24.00;51.10
13721;DHT22;6932;51.438;5.470;2023-06-14T04:22:31;24.00;51.20
13721;DHT22;6932;51.438;5.470;2023-06-14T04:24:57;24.00;51.10
13721;DHT22;6932;51.438;5.470;2023-06-14T04:27:25;24.00;51.10
13721;DHT22;6932;51.438;5.470;2023-06-14T04:29:52;24.10;51.20
13721;DHT22;6932;51.438;5.470;2023-06-14T04:32:28;24.10;51.20
13721;DHT22;6932;51.438;5.470;2023-06-14T04:35:07;24.10;51.20
13721;DHT22;6932;51.438;5.470;2023-06-14T04:37:34;24.10;51.20
13721;DHT22;6932;51.438;5.470;2023-06-14T04:40:00;24.10;51.20
13721;DHT22;6932;51.438;5.470;2023-06-14T04:42:26;24.20;51.20
13721;DHT22;6932;51.438;5.470;2023-06-14T04:44:56;24.20;51.30
13721;DHT22;6932;51.438;5.470;2023-06-14T04:47:22;24.20;51.30
13721;DHT22;6932;51.438;5.470;2023-06-14T04:49:50;24.20;51.40
13721;DHT22;6932;51.438;5.470;2023-06-14T04:52:17;24.30;51.40
13721;DHT22;6932;51.438;5.470;2023-06-14T04:54:46;24.30;51.40
13721;DHT22;6932;51.438;5.470;2023-06-14T04:57:12;24.30;51.40
13721;DHT22;6932;51.438;5.470;2023-06-14T04:59:39;24.30;51.30
13721;DHT22;6932;51.438;5.470;2023-06-14T05:02:06;24.40;51.40
13721;DHT22;6932;51.438;5.470;2023-06-14T05:04:32;24.40;51.30
13721;DHT22;6932;51.438;5.470;2023-06-14T05:06:58;24.50;51.40
13721;DHT22;6932;51.438;5.470;2023-06-14T05:09:24;24.50;51.30
13721;DHT22;6932;51.438;5.470;2023-06-14T05:11:50;24.50;51.30
13721;DHT22;6932;51.438;5.470;2023-06-14T05:14:16;24.60;51.40
13721;DHT22;6932;51.438;5.470;2023-06-14T05:16:43;24.60;51.50
13721;DHT22;6932;51.438;5.470;2023-06-14T05:19:09;24.70;51.30
13721;DHT22;6932;51.438;5.470;2023-06-14T05:21:36;24.70;51.30
13721;DHT22;6932;51.438;5.470;2023-06-14T05:24:02;24.80;51.30
13721;DHT22;6932;51.438;5.470;2023-06-14T05:26:28;24.80;51.20
13721;DHT22;6932;51.438;5.470;2023-06-14T05:28:56;24.80;51.20
13721;DHT22;6932;51.438;5.470;2023-06-14T05:31:23;24.90;51.30
13721;DHT22;6932;51.438;5.470;2023-06-14T05:33:50;24.90;51.30
13721;DHT22;6932;51.438;5.470;2023-06-14T05:36:16;25.00;51.30
13721;DHT22;6932;51.438;5.470;2023-06-14T05:38:42;25.00;51.20
13721;DHT22;6932;51.438;5.470;2023-06-14T05:41:07;25.10;51.20
13721;DHT22;6932;51.438;5.470;2023-06-14T05:43:33;25.10;51.10
13721;DHT22;6932;51.438;5.470;2023-06-14T05:45:59;25.20;51.00
13721;DHT22;6932;51.438;5.470;2023-06-14T05:48:24;25.30;50.90
13721;DHT22;6932;51.438;5.470;2023-06-14T05:50:50;25.30;51.00
13721;DHT22;6932;51.438;5.470;2023-06-14T05:53:16;25.40;51.00
13721;DHT22;6932;51.438;5.470;2023-06-14T05:55:41;25.50;51.00
13721;DHT22;6932;51.438;5.470;2023-06-14T05:58:07;25.50;50.90
13721;DHT22;6932;51.438;5.470;2023-06-14T06:00:33;25.60;50.90
13721;DHT22;6932;51.438;5.470;2023-06-14T06:02:59;25.70;50.80
13721;DHT22;6932;51.438;5.470;2023-06-14T06:05:26;25.80;50.80
13721;DHT22;6932;51.438;5.470;2023-06-14T06:07:52;25.80;50.70
13721;DHT22;6932;51.438;5.470;2023-06-14T06:10:17;25.90;50.90
13721;DHT22;6932;51.438;5.470;2023-06-14T06:12:43;26.00;50.70
13721;DHT22;6932;51.438;5.470;2023-06-14T06:15:09;26.10;50.60
13721;DHT22;6932;51.438;5.470;2023-06-14T06:17:38;26.10;50.20
13721;DHT22;6932;51.438;5.470;2023-06-14T06:20:05;26.30;50.00
13721;DHT22;6932;51.438;5.470;2023-06-14T06:22:34;26.40;49.70
13721;DHT22;6932;51.438;5.470;2023-06-14T06:25:00;26.40;49.80
13721;DHT22;6932;51.438;5.470;2023-06-14T06:27:25;26.50;49.40
13721;DHT22;6932;51.438;5.470;2023-06-14T06:29:51;26.60;49.30
13721;DHT22;6932;51.438;5.470;2023-06-14T06:32:17;26.60;49.10
13721;DHT22;6932;51.438;5.470;2023-06-14T06:34:43;26.70;49.10
13721;DHT22;6932;51.438;5.470;2023-06-14T06:37:09;26.80;49.10
13721;DHT22;6932;51.438;5.470;2023-06-14T06:39:35;26.90;49.00
13721;DHT22;6932;51.438;5.470;2023-06-14T06:42:01;27.00;49.00
13721;DHT22;6932;51.438;5.470;2023-06-14T06:44:26;27.00;48.90
13721;DHT22;6932;51.438;5.470;2023-06-14T06:46:52;27.10;48.90
13721;DHT22;6932;51.438;5.470;2023-06-14T06:49:18;27.20;48.80
13721;DHT22;6932;51.438;5.470;2023-06-14T06:52:02;27.20;48.50
13721;DHT22;6932;51.438;5.470;2023-06-14T06:54:33;27.30;48.40
13721;DHT22;6932;51.438;5.470;2023-06-14T06:57:00;27.40;48.30
13721;DHT22;6932;51.438;5.470;2023-06-14T06:59:29;27.50;48.00
13721;DHT22;6932;51.438;5.470;2023-06-14T07:01:55;27.50;48.00
13721;DHT22;6932;51.438;5.470;2023-06-14T07:04:21;27.60;47.80
13721;DHT22;6932;51.438;5.470;2023-06-14T07:06:47;27.60;47.60
13721;DHT22;6932;51.438;5.470;2023-06-14T07:09:13;27.60;47.50
13721;DHT22;6932;51.438;5.470;2023-06-14T07:11:40;27.70;47.40
13721;DHT22;6932;51.438;5.470;2023-06-14T07:14:06;27.70;47.30
13721;DHT22;6932;51.438;5.470;2023-06-14T07:16:32;27.80;47.10
13721;DHT22;6932;51.438;5.470;2023-06-14T07:18:58;27.80;46.90
13721;DHT22;6932;51.438;5.470;2023-06-14T07:21:24;27.90;46.90
13721;DHT22;6932;51.438;5.470;2023-06-14T07:23:53;27.90;46.70
13721;DHT22;6932;51.438;5.470;2023-06-14T07:26:19;27.90;46.60
13721;DHT22;6932;51.438;5.470;2023-06-14T07:28:46;28.00;46.60
13721;DHT22;6932;51.438;5.470;2023-06-14T07:31:17;28.00;46.40
13721;DHT22;6932;51.438;5.470;2023-06-14T07:33:44;28.10;46.10
13721;DHT22;6932;51.438;5.470;2023-06-14T07:36:11;28.20;46.10
13721;DHT22;6932;51.438;5.470;2023-06-14T07:38:37;28.30;46.10
13721;DHT22;6932;51.438;5.470;2023-06-14T07:41:02;28.40;46.10
13721;DHT22;6932;51.438;5.470;2023-06-14T07:43:28;28.40;45.90
13721;DHT22;6932;51.438;5.470;2023-06-14T07:45:54;28.50;45.60
13721;DHT22;6932;51.438;5.470;2023-06-14T07:48:22;28.60;45.40
13721;DHT22;6932;51.438;5.470;2023-06-14T07:50:48;28.70;45.50
13721;DHT22;6932;51.438;5.470;2023-06-14T07:53:13;28.80;45.50
13721;DHT22;6932;51.438;5.470;2023-06-14T07:55:39;28.90;45.60
13721;DHT22;6932;51.438;5.470;2023-06-14T07:58:07;28.90;45.50
13721;DHT22;6932;51.438;5.470;2023-06-14T08:00:33;29.00;45.50
13721;DHT22;6932;51.438;5.470;2023-06-14T08:02:59;29.10;45.60
13721;DHT22;6932;51.438;5.470;2023-06-14T08:05:25;29.20;45.60
13721;DHT22;6932;51.438;5.470;2023-06-14T08:07:52;29.30;45.50
13721;DHT22;6932;51.438;5.470;2023-06-14T08:10:18;29.40;45.20
13721;DHT22;6932;51.438;5.470;2023-06-14T08:12:44;29.50;45.10
13721;DHT22;6932;51.438;5.470;2023-06-14T08:15:10;29.60;45.10
13721;DHT22;6932;51.438;5.470;2023-06-14T08:17:36;29.70;44.30
13721;DHT22;6932;51.438;5.470;2023-06-14T08:20:02;29.80;44.00
13721;DHT22;6932;51.438;5.470;2023-06-14T08:22:32;29.80;43.70
13721;DHT22;6932;51.438;5.470;2023-06-14T08:25:01;29.90;43.60
13721;DHT22;6932;51.438;5.470;2023-06-14T08:27:27;29.90;43.50
13721;DHT22;6932;51.438;5.470;2023-06-14T08:29:53;30.00;43.50
13721;DHT22;6932;51.438;5.470;2023-06-14T08:32:19;30.00;44.30
13721;DHT22;6932;51.438;5.470;2023-06-14T08:34:45;30.00;43.60
13721;DHT22;6932;51.438;5.470;2023-06-14T08:37:11;30.10;43.40
13721;DHT22;6932;51.438;5.470;2023-06-14T08:39:37;30.20;43.40
13721;DHT22;6932;51.438;5.470;2023-06-14T08:42:03;30.20;43.00
13721;DHT22;6932;51.438;5.470;2023-06-14T08:44:31;30.30;42.90
13721;DHT22;6932;51.438;5.470;2023-06-14T08:46:58;30.30;42.60
13721;DHT22;6932;51.438;5.470;2023-06-14T08:49:25;30.40;42.60
13721;DHT22;6932;51.438;5.470;2023-06-14T08:51:59;30.40;42.60
13721;DHT22;6932;51.438;5.470;2023-06-14T08:54:28;30.40;42.60
13721;DHT22;6932;51.438;5.470;2023-06-14T08:57:00;30.40;43.10
13721;DHT22;6932;51.438;5.470;2023-06-14T08:59:26;30.40;42.30
13721;DHT22;6932;51.438;5.470;2023-06-14T09:01:52;30.40;42.30
13721;DHT22;6932;51.438;5.470;2023-06-14T09:04:20;30.40;42.10
13721;DHT22;6932;51.438;5.470;2023-06-14T09:06:56;30.40;42.00
13721;DHT22;6932;51.438;5.470;2023-06-14T09:09:22;30.40;41.90
13721;DHT22;6932;51.438;5.470;2023-06-14T09:11:49;30.30;41.90
13721;DHT22;6932;51.438;5.470;2023-06-14T09:16:45;30.40;42.00
13721;DHT22;6932;51.438;5.470;2023-06-14T09:19:24;30.40;41.90
13721;DHT22;6932;51.438;5.470;2023-06-14T09:21:50;30.40;41.80
13721;DHT22;6932;51.438;5.470;2023-06-14T09:24:18;30.50;40.80
13721;DHT22;6932;51.438;5.470;2023-06-14T09:26:47;30.50;40.50
13721;DHT22;6932;51.438;5.470;2023-06-14T09:29:13;30.50;40.80
13721;DHT22;6932;51.438;5.470;2023-06-14T09:31:39;30.50;40.30
13721;DHT22;6932;51.438;5.470;2023-06-14T09:34:05;30.60;39.30
13721;DHT22;6932;51.438;5.470;2023-06-14T09:36:32;30.60;38.00
13721;DHT22;6932;51.438;5.470;2023-06-14T09:38:59;30.60;38.30
13721;DHT22;6932;51.438;5.470;2023-06-14T09:41:41;30.70;38.40
13721;DHT22;6932;51.438;5.470;2023-06-14T09:44:09;30.70;38.30
13721;DHT22;6932;51.438;5.470;2023-06-14T09:46:37;30.70;38.80
13721;DHT22;6932;51.438;5.470;2023-06-14T09:49:04;30.80;38.00
13721;DHT22;6932;51.438;5.470;2023-06-14T09:51:31;30.80;37.90
13721;DHT22;6932;51.438;5.470;2023-06-14T09:54:01;30.90;38.10
13721;DHT22;6932;51.438;5.470;2023-06-14T09:56:32;30.90;38.30
13721;DHT22;6932;51.438;5.470;2023-06-14T09:59:04;30.90;37.10
13721;DHT22;6932;51.438;5.470;2023-06-14T10:01:33;31.00;37.60
13721;DHT22;6932;51.438;5.470;2023-06-14T10:04:05;31.00;36.90
13721;DHT22;6932;51.438;5.470;2023-06-14T10:06:32;31.00;36.70
13721;DHT22;6932;51.438;5.470;2023-06-14T10:09:04;31.00;36.80
13721;DHT22;6932;51.438;5.470;2023-06-14T10:11:32;30.90;36.70
13721;DHT22;6932;51.438;5.470;2023-06-14T10:14:01;30.90;36.80
13721;DHT22;6932;51.438;5.470;2023-06-14T10:19:27;30.90;37.20
13721;DHT22;6932;51.438;5.470;2023-06-14T10:22:02;30.90;37.30
13721;DHT22;6932;51.438;5.470;2023-06-14T10:24:45;30.90;37.20
13721;DHT22;6932;51.438;5.470;2023-06-14T10:27:14;30.90;37.20
13721;DHT22;6932;51.438;5.470;2023-06-14T10:32:24;30.90;37.40
13721;DHT22;6932;51.438;5.470;2023-06-14T10:34:58;30.90;37.00
13721;DHT22;6932;51.438;5.470;2023-06-14T10:37:25;30.90;37.10
13721;DHT22;6932;51.438;5.470;2023-06-14T10:39:51;30.90;37.30
13721;DHT22;6932;51.438;5.470;2023-06-14T10:42:18;30.90;37.50
13721;DHT22;6932;51.438;5.470;2023-06-14T10:47:36;30.90;37.90
13721;DHT22;6932;51.438;5.470;2023-06-14T10:50:10;30.90;38.00
13721;DHT22;6932;51.438;5.470;2023-06-14T10:52:41;30.90;38.00
13721;DHT22;6932;51.438;5.470;2023-06-14T10:55:12;30.90;38.00
13721;DHT22;6932;51.438;5.470;2023-06-14T10:57:55;31.00;38.40
13721;DHT22;6932;51.438;5.470;2023-06-14T11:00:28;30.90;38.40
13721;DHT22;6932;51.438;5.470;2023-06-14T11:05:28;31.00;38.00
13721;DHT22;6932;51.438;5.470;2023-06-14T11:10:43;31.00;38.00
13721;DHT22;6932;51.438;5.470;2023-06-14T11:13:12;31.00;38.10
13721;DHT22;6932;51.438;5.470;2023-06-14T11:15:47;30.90;38.10
13721;DHT22;6932;51.438;5.470;2023-06-14T11:18:14;31.00;38.20
13721;DHT22;6932;51.438;5.470;2023-06-14T11:20:42;30.90;38.50
13721;DHT22;6932;51.438;5.470;2023-06-14T11:23:07;30.90;38.90
13721;DHT22;6932;51.438;5.470;2023-06-14T11:25:33;30.90;38.50
13721;DHT22;6932;51.438;5.470;2023-06-14T11:27:59;30.90;38.80
13721;DHT22;6932;51.438;5.470;2023-06-14T11:30:25;30.80;38.50
13721;DHT22;6932;51.438;5.470;2023-06-14T11:32:52;30.80;38.80
13721;DHT22;6932;51.438;5.470;2023-06-14T11:35:21;30.80;39.10
13721;DHT22;6932;51.438;5.470;2023-06-14T11:37:52;30.70;38.90
13721;DHT22;6932;51.438;5.470;2023-06-14T11:40:25;30.70;39.00
13721;DHT22;6932;51.438;5.470;2023-06-14T11:43:00;30.70;38.90
13721;DHT22;6932;51.438;5.470;2023-06-14T11:45:27;30.70;39.00
13721;DHT22;6932;51.438;5.470;2023-06-14T11:47:55;30.70;39.20
13721;DHT22;6932;51.438;5.470;2023-06-14T11:50:22;30.70;39.70
13721;DHT22;6932;51.438;5.470;2023-06-14T11:52:54;30.60;40.00
13721;DHT22;6932;51.438;5.470;2023-06-14T11:55:22;30.60;39.90
13721;DHT22;6932;51.438;5.470;2023-06-14T11:57:49;30.60;40.10
13721;DHT22;6932;51.438;5.470;2023-06-14T12:00:15;30.60;40.40
13721;DHT22;6932;51.438;5.470;2023-06-14T12:02:51;30.60;40.50
13721;DHT22;6932;51.438;5.470;2023-06-14T12:05:21;30.60;40.30
13721;DHT22;6932;51.438;5.470;2023-06-14T12:07:47;30.60;40.30
13721;DHT22;6932;51.438;5.470;2023-06-14T12:10:14;30.50;41.00
13721;DHT22;6932;51.438;5.470;2023-06-14T12:12:41;30.50;40.50
13721;DHT22;6932;51.438;5.470;2023-06-14T12:15:08;30.50;40.60
13721;DHT22;6932;51.438;5.470;2023-06-14T12:17:37;30.40;40.50
13721;DHT22;6932;51.438;5.470;2023-06-14T12:20:12;30.40;40.60
13721;DHT22;6932;51.438;5.470;2023-06-14T12:22:51;30.40;41.00
13721;DHT22;6932;51.438;5.470;2023-06-14T12:25:30;30.30;40.90
13721;DHT22;6932;51.438;5.470;2023-06-14T12:28:08;30.30;41.10
13721;DHT22;6932;51.438;5.470;2023-06-14T12:30:36;30.30;41.50
13721;DHT22;6932;51.438;5.470;2023-06-14T12:33:05;30.30;40.70
13721;DHT22;6932;51.438;5.470;2023-06-14T12:35:31;30.30;40.60
13721;DHT22;6932;51.438;5.470;2023-06-14T12:37:57;30.30;40.50
13721;DHT22;6932;51.438;5.470;2023-06-14T12:40:23;30.20;40.30
13721;DHT22;6932;51.438;5.470;2023-06-14T12:42:49;30.20;40.10
13721;DHT22;6932;51.438;5.470;2023-06-14T12:45:15;30.30;39.80
13721;DHT22;6932;51.438;5.470;2023-06-14T12:47:41;30.30;39.80
13721;DHT22;6932;51.438;5.470;2023-06-14T12:50:07;30.20;39.60
13721;DHT22;6932;51.438;5.470;2023-06-14T12:52:33;30.20;39.50
13721;DHT22;6932;51.438;5.470;2023-06-14T12:55:05;30.30;39.50
13721;DHT22;6932;51.438;5.470;2023-06-14T12:57:32;30.20;39.90
13721;DHT22;6932;51.438;5.470;2023-06-14T13:00:00;30.20;40.10
13721;DHT22;6932;51.438;5.470;2023-06-14T13:02:26;30.20;40.30
13721;DHT22;6932;51.438;5.470;2023-06-14T13:04:52;30.20;40.10
13721;DHT22;6932;51.438;5.470;2023-06-14T13:07:18;30.20;40.00
13721;DHT22;6932;51.438;5.470;2023-06-14T13:09:44;30.10;40.10
13721;DHT22;6932;51.438;5.470;2023-06-14T13:12:10;30.10;40.00
13721;DHT22;6932;51.438;5.470;2023-06-14T13:14:38;30.10;40.00
13721;DHT22;6932;51.438;5.470;2023-06-14T13:17:10;30.10;40.20
13721;DHT22;6932;51.438;5.470;2023-06-14T13:19:36;30.10;40.30
13721;DHT22;6932;51.438;5.470;2023-06-14T13:22:03;30.10;40.30
13721;DHT22;6932;51.438;5.470;2023-06-14T13:24:29;30.10;40.20
13721;DHT22;6932;51.438;5.470;2023-06-14T13:26:56;30.10;40.50
13721;DHT22;6932;51.438;5.470;2023-06-14T13:29:23;30.10;40.20
13721;DHT22;6932;51.438;5.470;2023-06-14T13:31:50;30.20;40.30
13721;DHT22;6932;51.438;5.470;2023-06-14T13:34:16;30.10;40.20
13721;DHT22;6932;51.438;5.470;2023-06-14T13:36:41;30.20;40.10
13721;DHT22;6932;51.438;5.470;2023-06-14T13:39:08;30.20;40.00
13721;DHT22;6932;51.438;5.470;2023-06-14T13:41:33;30.20;40.10
13721;DHT22;6932;51.438;5.470;2023-06-14T13:44:01;30.20;40.00
13721;DHT22;6932;51.438;5.470;2023-06-14T13:46:29;30.20;40.10
13721;DHT22;6932;51.438;5.470;2023-06-14T13:48:56;30.20;40.00
13721;DHT22;6932;51.438;5.470;2023-06-14T13:51:23;30.10;39.90
13721;DHT22;6932;51.438;5.470;2023-06-14T13:53:49;30.10;39.80
13721;DHT22;6932;51.438;5.470;2023-06-14T13:56:16;30.10;40.00
13721;DHT22;6932;51.438;5.470;2023-06-14T13:58:43;30.10;40.20
13721;DHT22;6932;51.438;5.470;2023-06-14T14:01:09;30.10;40.80
13721;DHT22;6932;51.438;5.470;2023-06-14T14:03:35;30.10;40.10
13721;DHT22;6932;51.438;5.470;2023-06-14T14:06:04;30.10;40.00
13721;DHT22;6932;51.438;5.470;2023-06-14T14:08:31;30.10;40.00
13721;DHT22;6932;51.438;5.470;2023-06-14T14:10:56;30.10;40.20
13721;DHT22;6932;51.438;5.470;2023-06-14T14:13:22;30.00;40.30
13721;DHT22;6932;51.438;5.470;2023-06-14T14:15:48;30.00;40.50
13721;DHT22;6932;51.438;5.470;2023-06-14T14:18:17;30.10;40.20
13721;DHT22;6932;51.438;5.470;2023-06-14T14:20:43;30.10;39.80
13721;DHT22;6932;51.438;5.470;2023-06-14T14:23:09;30.10;39.80
13721;DHT22;6932;51.438;5.470;2023-06-14T14:25:35;30.10;39.60
13721;DHT22;6932;51.438;5.470;2023-06-14T14:28:01;30.10;39.50
13721;DHT22;6932;51.438;5.470;2023-06-14T14:30:26;30.20;40.00
13721;DHT22;6932;51.438;5.470;2023-06-14T14:32:53;30.10;40.20
13721;DHT22;6932;51.438;5.470;2023-06-14T14:35:19;30.10;40.50
13721;DHT22;6932;51.438;5.470;2023-06-14T14:37:44;30.10;40.70
13721;DHT22;6932;51.438;5.470;2023-06-14T14:40:11;30.10;40.80
13721;DHT22;6932;51.438;5.470;2023-06-14T14:42:37;30.10;40.50
13721;DHT22;6932;51.438;5.470;2023-06-14T14:45:03;30.10;40.50
13721;DHT22;6932;51.438;5.470;2023-06-14T14:47:29;30.10;40.40
13721;DHT22;6932;51.438;5.470;2023-06-14T14:49:55;30.10;40.40
13721;DHT22;6932;51.438;5.470;2023-06-14T14:52:21;30.10;40.30
13721;DHT22;6932;51.438;5.470;2023-06-14T14:54:47;30.10;40.30
13721;DHT22;6932;51.438;5.470;2023-06-14T14:57:12;30.20;40.50
13721;DHT22;6932;51.438;5.470;2023-06-14T14:59:38;30.10;40.60
13721;DHT22;6932;51.438;5.470;2023-06-14T15:02:04;30.10;40.80
13721;DHT22;6932;51.438;5.470;2023-06-14T15:04:30;30.10;40.80
13721;DHT22;6932;51.438;5.470;2023-06-14T15:06:56;30.10;40.60
13721;DHT22;6932;51.438;5.470;2023-06-14T15:09:22;30.10;40.80
13721;DHT22;6932;51.438;5.470;2023-06-14T15:11:48;30.10;40.80
13721;DHT22;6932;51.438;5.470;2023-06-14T15:14:14;30.10;40.70
13721;DHT22;6932;51.438;5.470;2023-06-14T15:16:40;30.10;40.90
13721;DHT22;6932;51.438;5.470;2023-06-14T15:19:06;30.10;41.20
13721;DHT22;6932;51.438;5.470;2023-06-14T15:21:32;30.10;41.20
13721;DHT22;6932;51.438;5.470;2023-06-14T15:23:58;30.10;41.50
13721;DHT22;6932;51.438;5.470;2023-06-14T15:26:23;30.10;41.70
13721;DHT22;6932;51.438;5.470;2023-06-14T15:28:50;30.10;41.10
13721;DHT22;6932;51.438;5.470;2023-06-14T15:31:16;30.00;41.90
13721;DHT22;6932;51.438;5.470;2023-06-14T15:33:41;30.00;41.70
13721;DHT22;6932;51.438;5.470;2023-06-14T15:36:07;30.10;40.40
13721;DHT22;6932;51.438;5.470;2023-06-14T15:38:35;30.10;40.50
13721;DHT22;6932;51.438;5.470;2023-06-14T15:41:01;30.00;40.70
13721;DHT22;6932;51.438;5.470;2023-06-14T15:43:27;30.00;40.80
13721;DHT22;6932;51.438;5.470;2023-06-14T15:45:53;30.00;41.00
13721;DHT22;6932;51.438;5.470;2023-06-14T15:48:19;30.00;40.90
13721;DHT22;6932;51.438;5.470;2023-06-14T15:50:44;30.00;40.60
13721;DHT22;6932;51.438;5.470;2023-06-14T15:53:11;30.10;40.20
13721;DHT22;6932;51.438;5.470;2023-06-14T15:55:37;30.10;40.00
13721;DHT22;6932;51.438;5.470;2023-06-14T15:58:02;30.10;40.00
13721;DHT22;6932;51.438;5.470;2023-06-14T16:00:28;30.10;40.20
13721;DHT22;6932;51.438;5.470;2023-06-14T16:02:54;30.10;39.90